createdAt,value
2016-04-20T08:27:29.500Z,1025.62
2016-04-20T08:28:29.425Z,1025.6
2016-04-20T08:29:29.411Z,1025.58
2016-04-20T08:30:29.383Z,1025.6
2016-04-20T08:31:29.371Z,1025.59
2016-04-20T08:32:29.341Z,1025.55
2016-04-20T08:33:29.329Z,1025.62
2016-04-20T08:34:29.300Z,1025.64
2016-04-20T08:35:29.287Z,1025.61
2016-04-20T08:36:29.274Z,1025.63
2016-04-20T08:37:29.246Z,1025.63
2016-04-20T08:38:29.232Z,1025.68
2016-04-20T08:39:29.220Z,1025.66
2016-04-20T08:40:29.191Z,1025.63
2016-04-20T08:41:29.179Z,1025.66
2016-04-20T08:42:29.150Z,1025.65
2016-04-20T08:43:29.137Z,1025.66
2016-04-20T08:44:29.124Z,1025.66
2016-04-20T08:45:29.096Z,1025.67
2016-04-20T08:46:29.082Z,1025.64
2016-04-20T08:47:29.070Z,1025.7
2016-04-20T08:48:29.042Z,1025.69
2016-04-20T08:49:29.029Z,1025.67
2016-04-20T08:50:29.000Z,1025.67
2016-04-20T08:51:28.987Z,1025.65
2016-04-20T08:52:28.958Z,1025.66
2016-04-20T08:53:28.945Z,1025.67
2016-04-20T08:54:28.933Z,1025.64
2016-04-20T08:55:28.903Z,1025.69
2016-04-20T08:56:28.891Z,1025.71
2016-04-20T08:57:28.877Z,1025.66
2016-04-20T08:58:28.850Z,1025.64
2016-04-20T08:59:28.836Z,1025.64
2016-04-20T09:00:28.808Z,1025.71
2016-04-20T09:01:28.795Z,1025.68
2016-04-20T09:02:28.829Z,1025.68
2016-04-20T09:03:28.769Z,1025.69
2016-04-20T09:04:28.740Z,1025.66
2016-04-20T09:05:28.712Z,1025.72
2016-04-20T09:06:28.698Z,1025.72
2016-04-20T09:07:28.686Z,1025.73
2016-04-20T09:08:28.657Z,1025.75
2016-04-20T09:09:28.644Z,1025.74
2016-04-20T09:10:28.976Z,1025.77
2016-04-20T09:11:28.604Z,1025.8
2016-04-20T09:12:28.590Z,1025.77
2016-04-20T09:13:28.562Z,1025.76
2016-04-20T09:14:28.549Z,1025.77
2016-04-20T09:15:28.535Z,1025.78
2016-04-20T09:16:28.507Z,1025.79
2016-04-20T09:17:28.494Z,1025.78
2016-04-20T09:18:28.965Z,1025.82
2016-04-20T09:19:28.453Z,1025.8
2016-04-20T09:20:28.440Z,1025.84
2016-04-20T09:21:28.411Z,1025.81
2016-04-20T09:22:28.397Z,1025.84
2016-04-20T09:23:28.369Z,1025.86
2016-04-20T09:24:28.356Z,1025.8
2016-04-20T09:25:28.327Z,1025.84
2016-04-20T09:26:28.971Z,1025.8
2016-04-20T09:27:28.301Z,1025.77
2016-04-20T09:28:28.273Z,1025.88
2016-04-20T09:29:28.260Z,1025.85
2016-04-20T09:30:28.232Z,1025.84
2016-04-20T09:31:28.218Z,1025.86
2016-04-20T09:32:28.205Z,1025.86
2016-04-20T09:33:28.192Z,1025.84
2016-04-20T09:34:28.960Z,1025.81
2016-04-20T09:35:28.135Z,1025.81
2016-04-20T09:36:28.122Z,1025.82
2016-04-20T09:37:28.109Z,1025.82
2016-04-20T09:38:28.080Z,1025.82
2016-04-20T09:39:28.068Z,1025.8
2016-04-20T09:40:28.055Z,1025.8
2016-04-20T09:41:28.026Z,1025.79
2016-04-20T09:42:28.264Z,1025.78
2016-04-20T09:43:27.984Z,1025.76
2016-04-20T09:44:27.972Z,1025.73
2016-04-20T09:45:27.958Z,1025.76
2016-04-20T09:46:27.930Z,1025.74
2016-04-20T09:47:27.917Z,1025.75
2016-04-20T09:48:27.889Z,1025.67
2016-04-20T09:49:27.876Z,1025.73
2016-04-20T09:50:28.253Z,1025.72
2016-04-20T09:51:27.835Z,1025.71
2016-04-20T09:52:27.821Z,1025.72
2016-04-20T09:53:27.793Z,1025.75
2016-04-20T09:54:27.780Z,1025.76
2016-04-20T09:55:27.767Z,1025.77
2016-04-20T09:56:27.738Z,1025.73
2016-04-20T09:57:27.726Z,1025.74
2016-04-20T09:58:27.729Z,1025.74
2016-04-20T09:59:27.684Z,1025.73
2016-04-20T10:00:27.671Z,1025.7
2016-04-20T10:01:27.657Z,1025.67
2016-04-20T10:02:27.629Z,1025.65
2016-04-20T10:03:27.617Z,1025.62
2016-04-20T10:04:27.587Z,1025.69
2016-04-20T10:05:27.575Z,1025.65
2016-04-20T10:06:27.562Z,1025.64
2016-04-20T10:07:27.533Z,1025.65
2016-04-20T10:08:27.520Z,1025.63
2016-04-20T10:09:27.492Z,1025.67
2016-04-20T10:10:27.479Z,1025.64
2016-04-20T10:11:27.451Z,1025.66
2016-04-20T10:12:27.437Z,1025.65
2016-04-20T10:13:27.425Z,1025.6
2016-04-20T10:14:27.397Z,1025.64
2016-04-20T10:15:27.384Z,1025.6
2016-04-20T10:16:27.370Z,1025.62
2016-04-20T10:17:27.342Z,1025.59
2016-04-20T10:18:27.329Z,1025.56
2016-04-20T10:19:27.300Z,1025.48
2016-04-20T10:20:27.288Z,1025.47
2016-04-20T10:21:27.275Z,1025.51
2016-04-20T10:22:27.246Z,1025.53
2016-04-20T10:23:27.233Z,1025.52
2016-04-20T10:24:27.205Z,1025.54
2016-04-20T10:25:27.191Z,1025.55
2016-04-20T10:26:27.179Z,1025.53
2016-04-20T10:27:27.149Z,1025.55
2016-04-20T10:28:27.137Z,1025.5
2016-04-20T10:29:27.108Z,1025.52
2016-04-20T10:30:27.096Z,1025.53
2016-04-20T10:31:27.082Z,1025.47
2016-04-20T10:32:27.054Z,1025.49
2016-04-20T10:33:27.041Z,1025.46
2016-04-20T10:34:27.013Z,1025.45
2016-04-20T10:35:27.000Z,1025.43
2016-04-20T10:36:26.987Z,1025.42
2016-04-20T10:37:26.958Z,1025.42
2016-04-20T10:38:26.945Z,1025.45
2016-04-20T10:39:26.932Z,1025.44
2016-04-20T10:40:26.903Z,1025.41
2016-04-20T10:41:26.891Z,1025.41
2016-04-20T10:42:26.878Z,1025.43
2016-04-20T10:43:26.850Z,1025.45
2016-04-20T10:44:26.836Z,1025.45
2016-04-20T10:45:26.808Z,1025.47
2016-04-20T10:46:26.795Z,1025.44
2016-04-20T10:47:26.782Z,1025.43
2016-04-20T10:48:26.753Z,1025.42
2016-04-20T10:49:26.741Z,1025.37
2016-04-20T10:50:26.727Z,1025.33
2016-04-20T10:51:26.699Z,1025.33
2016-04-20T10:52:26.670Z,1025.27
2016-04-20T10:53:26.657Z,1025.29
2016-04-20T10:54:26.644Z,1025.27
2016-04-20T10:55:26.616Z,1025.27
2016-04-20T10:56:26.603Z,1025.25
2016-04-20T10:57:26.590Z,1025.27
2016-04-20T10:58:26.561Z,1025.24
2016-04-20T10:59:26.548Z,1025.25
2016-04-20T11:00:26.535Z,1025.26
2016-04-20T11:01:26.507Z,1025.27
2016-04-20T11:02:26.494Z,1025.33
2016-04-20T11:03:26.466Z,1025.31
2016-04-20T11:04:26.452Z,1025.28
2016-04-20T11:05:26.440Z,1025.32
2016-04-20T11:06:26.426Z,1025.3
2016-04-20T11:07:26.398Z,1025.28
2016-04-20T11:08:26.370Z,1025.29
2016-04-20T11:09:26.357Z,1025.3
2016-04-20T11:10:26.343Z,1025.23
2016-04-20T11:11:26.315Z,1025.25
2016-04-20T11:12:26.303Z,1025.25
2016-04-20T11:13:26.274Z,1025.22
2016-04-20T11:14:26.261Z,1025.2
2016-04-20T11:15:26.248Z,1025.17
2016-04-20T11:16:26.234Z,1025.17
2016-04-20T11:17:26.206Z,1025.13
2016-04-20T11:18:26.178Z,1025.2
2016-04-20T11:19:26.165Z,1025.14
2016-04-20T11:20:26.153Z,1025.17
2016-04-20T11:21:26.139Z,1025.15
2016-04-20T11:22:26.111Z,1025.13
2016-04-20T11:23:26.441Z,1025.14
2016-04-20T11:24:26.085Z,1025.11
2016-04-20T11:25:26.056Z,1025.18
2016-04-20T11:26:26.043Z,1025.17
2016-04-20T11:27:26.014Z,1025.15
2016-04-20T11:28:26.001Z,1025.17
2016-04-20T11:29:25.988Z,1025.07
2016-04-20T11:30:25.960Z,1025.08
2016-04-20T11:31:25.947Z,1025.03
2016-04-20T11:32:25.919Z,1025.02
2016-04-20T11:33:25.906Z,1025
2016-04-20T11:34:25.893Z,1024.98
2016-04-20T11:35:25.896Z,1024.96
2016-04-20T11:36:25.851Z,1024.92
2016-04-20T11:37:25.838Z,1024.93
2016-04-20T11:38:25.810Z,1024.93
2016-04-20T11:39:25.797Z,1024.93
2016-04-20T11:40:25.768Z,1024.94
2016-04-20T11:41:25.756Z,1024.92
2016-04-20T11:42:25.742Z,1024.93
2016-04-20T11:43:25.714Z,1024.86
2016-04-20T11:44:25.700Z,1024.87
2016-04-20T11:45:25.688Z,1024.89
2016-04-20T11:46:25.675Z,1024.85
2016-04-20T11:47:25.646Z,1024.87
2016-04-20T11:48:25.634Z,1024.86
2016-04-20T11:49:25.605Z,1024.93
2016-04-20T11:50:25.608Z,1024.94
2016-04-20T11:51:25.579Z,1024.92
2016-04-20T11:52:25.566Z,1024.92
2016-04-20T11:53:25.538Z,1024.88
2016-04-20T11:54:25.525Z,1024.88
2016-04-20T11:55:25.511Z,1024.85
2016-04-20T11:56:25.483Z,1024.81
2016-04-20T11:57:25.469Z,1024.88
2016-04-20T11:58:25.457Z,1024.85
2016-04-20T11:59:25.430Z,1024.88
2016-04-20T12:00:25.416Z,1024.81
2016-04-20T12:01:25.403Z,1024.8
2016-04-20T12:02:25.718Z,1024.83
2016-04-20T12:03:25.376Z,1024.76
2016-04-20T12:04:25.332Z,1024.81
2016-04-20T12:05:25.336Z,1024.83
2016-04-20T12:06:25.307Z,1024.74
2016-04-20T12:07:25.279Z,1024.74
2016-04-20T12:08:25.265Z,1024.77
2016-04-20T12:09:25.252Z,1024.74
2016-04-20T12:10:25.223Z,1024.76
2016-04-20T12:11:25.211Z,1024.7
2016-04-20T12:12:25.199Z,1024.7
2016-04-20T12:13:25.170Z,1024.76
2016-04-20T12:14:25.157Z,1024.73
2016-04-20T12:15:25.143Z,1024.73
2016-04-20T12:16:25.130Z,1024.7
2016-04-20T12:17:25.103Z,1024.68
2016-04-20T12:18:25.090Z,1024.66
2016-04-20T12:19:25.061Z,1024.62
2016-04-20T12:20:25.048Z,1024.63
2016-04-20T12:21:25.128Z,1024.64
2016-04-20T12:22:25.022Z,1024.7
2016-04-20T12:31:30.953Z,1024.63
2016-04-20T12:32:30.923Z,1024.64
2016-04-20T12:33:30.910Z,1024.59
2016-04-20T12:34:31.741Z,1024.59
2016-04-20T12:35:30.869Z,1024.63
2016-04-20T12:36:30.841Z,1024.61
2016-04-20T12:37:30.828Z,1024.53
2016-04-20T12:38:30.815Z,1024.54
2016-04-20T12:39:30.787Z,1024.55
2016-04-20T12:40:30.774Z,1024.54
2016-04-20T12:41:30.761Z,1024.52
2016-04-20T12:42:30.748Z,1024.51
2016-04-20T12:43:30.718Z,1024.51
2016-04-20T12:44:30.706Z,1024.54
2016-04-20T12:45:30.678Z,1024.5
2016-04-20T12:46:30.665Z,1024.5
2016-04-20T12:47:30.652Z,1024.47
2016-04-20T12:48:30.623Z,1024.52
2016-04-20T12:49:30.610Z,1024.49
2016-04-20T12:50:30.597Z,1024.52
2016-04-20T12:51:30.569Z,1024.49
2016-04-20T12:52:30.556Z,1024.48
2016-04-20T12:53:30.542Z,1024.45
2016-04-20T12:54:30.530Z,1024.43
2016-04-20T12:57:16.678Z,1024.46
2016-04-20T12:58:16.650Z,1024.46
2016-04-20T12:59:16.637Z,1024.48
2016-04-20T13:00:16.608Z,1024.53
2016-04-20T13:01:16.595Z,1024.52
2016-04-20T13:02:16.582Z,1024.51
2016-04-20T13:03:16.555Z,1024.49
2016-04-20T13:04:16.541Z,1024.44
2016-04-20T13:05:16.528Z,1024.43
2016-04-20T13:06:16.499Z,1024.34
2016-04-20T13:07:16.487Z,1024.39
2016-04-20T13:08:16.474Z,1024.33
2016-04-20T13:09:16.446Z,1024.41
2016-04-20T13:10:16.448Z,1024.41
2016-04-20T13:11:16.418Z,1024.34
2016-04-20T13:12:16.406Z,1024.36
2016-04-20T13:13:16.409Z,1024.33
2016-04-20T13:14:16.365Z,1024.31
2016-04-20T13:15:16.352Z,1024.35
2016-04-20T13:16:16.339Z,1024.37
2016-04-20T13:17:16.310Z,1024.34
2016-04-20T13:18:16.298Z,1024.38
2016-04-20T13:19:16.284Z,1024.35
2016-04-20T13:20:16.256Z,1024.35
2016-04-20T13:21:16.243Z,1024.38
2016-04-20T13:22:16.230Z,1024.31
2016-04-20T13:23:16.217Z,1024.38
2016-04-20T13:24:16.188Z,1024.39
2016-04-20T13:25:16.175Z,1024.35
2016-04-20T13:26:16.178Z,1024.39
2016-04-20T13:27:16.150Z,1024.28
2016-04-20T13:28:16.137Z,1024.28
2016-04-20T13:29:16.108Z,1024.36
2016-04-20T13:30:16.095Z,1024.34
2016-04-20T13:31:16.082Z,1024.4
2016-04-20T13:32:16.070Z,1024.34
2016-04-20T13:33:16.057Z,1024.25
2016-04-20T13:34:16.044Z,1024.31
2016-04-20T13:35:16.030Z,1024.28
2016-04-20T13:36:16.018Z,1024.25
2016-04-20T13:37:16.004Z,1024.21
2016-04-20T13:38:15.992Z,1024.25
2016-04-20T13:39:15.979Z,1024.26
2016-04-20T13:40:15.951Z,1024.26
2016-04-20T13:41:15.938Z,1024.25
2016-04-20T13:42:15.924Z,1024.27
2016-04-20T13:43:15.911Z,1024.32
2016-04-20T13:44:15.899Z,1024.27
2016-04-20T13:45:15.885Z,1024.25
2016-04-20T13:46:15.873Z,1024.23
2016-04-20T13:47:15.859Z,1024.21
2016-04-20T13:48:15.848Z,1024.21
2016-04-20T13:49:15.834Z,1024.23
2016-04-20T13:50:15.821Z,1024.23
2016-04-20T13:51:15.808Z,1024.18
2016-04-20T13:52:15.796Z,1024.16
2016-04-20T13:53:15.782Z,1024.2
2016-04-20T13:54:15.769Z,1024.24
2016-04-20T13:55:15.756Z,1024.29
2016-04-20T13:56:15.728Z,1024.27
2016-04-20T13:57:15.730Z,1024.28
2016-04-20T13:58:15.703Z,1024.32
2016-04-20T13:59:15.689Z,1024.33
2016-04-20T14:00:15.676Z,1024.29
2016-04-20T14:01:15.664Z,1024.2
2016-04-20T14:02:15.650Z,1024.28
2016-04-20T14:03:15.638Z,1024.26
2016-04-20T14:04:15.624Z,1024.23
2016-04-20T14:05:15.611Z,1024.26
2016-04-20T14:06:15.598Z,1024.22
2016-04-20T14:07:15.586Z,1024.25
2016-04-20T14:08:15.572Z,1024.21
2016-04-20T14:09:15.575Z,1024.2
2016-04-20T14:10:15.547Z,1024.18
2016-04-20T14:11:15.549Z,1024.19
2016-04-20T14:12:15.521Z,1024.19
2016-04-20T14:13:15.508Z,1024.2
2016-04-20T14:14:15.496Z,1024.22
2016-04-20T14:15:15.498Z,1024.18
2016-04-20T14:16:15.468Z,1024.22
2016-04-20T14:17:15.456Z,1024.23
2016-04-20T14:18:15.443Z,1024.22
2016-04-20T14:19:15.431Z,1024.24
2016-04-20T14:20:15.418Z,1024.21
2016-04-20T14:21:15.420Z,1024.26
2016-04-20T14:22:15.752Z,1024.16
2016-04-20T14:23:15.379Z,1024.17
2016-04-20T14:24:15.382Z,1024.18
2016-04-20T14:25:15.354Z,1024.14
2016-04-20T14:26:15.357Z,1024.13
2016-04-20T14:27:15.328Z,1024.09
2016-04-20T14:28:15.315Z,1024.09
2016-04-20T14:29:15.318Z,1024.14
2016-04-20T14:30:15.305Z,1024.13
2016-04-20T14:31:15.292Z,1024.1
2016-04-20T14:32:15.262Z,1024.11
2016-04-20T14:33:15.265Z,1024.11
2016-04-20T14:34:15.237Z,1024.1
2016-04-20T14:35:15.240Z,1024.08
2016-04-20T14:36:15.242Z,1024.06
2016-04-20T14:37:15.214Z,1024.09
2016-04-20T14:38:15.201Z,1024.01
2016-04-20T14:39:15.189Z,1024.07
2016-04-20T14:40:15.175Z,1024.03
2016-04-20T14:41:15.162Z,1024.02
2016-04-20T14:42:15.150Z,1024
2016-04-20T14:43:15.136Z,1024.03
2016-04-20T14:44:15.124Z,1024.01
2016-04-20T14:45:15.111Z,1024.07
2016-04-20T14:46:15.098Z,1024.05
2016-04-20T14:47:15.085Z,1024.06
2016-04-20T14:48:15.088Z,1024.04
2016-04-20T14:49:15.059Z,1024.02
2016-04-20T14:50:15.046Z,1024.02
2016-04-20T14:51:15.033Z,1024.01
2016-04-20T14:52:15.020Z,1024.03
2016-04-20T14:53:15.007Z,1024.02
2016-04-20T14:54:14.994Z,1024
2016-04-20T14:55:14.982Z,1024
2016-04-20T14:56:14.968Z,1023.98
2016-04-20T14:57:14.955Z,1023.99
2016-04-20T14:58:14.927Z,1023.94
2016-04-20T14:59:14.930Z,1023.96
2016-04-20T15:00:14.917Z,1023.98
2016-04-20T15:01:14.888Z,1023.95
2016-04-20T15:02:14.875Z,1023.97
2016-04-20T15:03:14.862Z,1023.9
2016-04-20T15:04:14.848Z,1023.89
2016-04-20T15:05:14.836Z,1023.89
2016-04-20T15:06:14.901Z,1023.89
2016-04-20T15:07:14.811Z,1023.83
2016-04-20T15:08:14.798Z,1023.86
2016-04-20T15:09:14.785Z,1023.83
2016-04-20T15:10:14.772Z,1023.85
2016-04-20T15:11:14.759Z,1023.87
2016-04-20T15:12:14.745Z,1023.91
2016-04-20T15:13:14.733Z,1023.89
2016-04-20T15:14:14.719Z,1023.92
2016-04-20T15:15:14.707Z,1023.92
2016-04-20T15:16:14.694Z,1023.88
2016-04-20T15:17:14.680Z,1023.91
2016-04-20T15:18:14.668Z,1023.88
2016-04-20T15:19:14.655Z,1023.85
2016-04-20T15:20:14.642Z,1023.84
2016-04-20T15:21:14.629Z,1023.78
2016-04-20T15:22:14.601Z,1023.75
2016-04-20T15:23:14.588Z,1023.74
2016-04-20T15:24:14.574Z,1023.72
2016-04-20T15:25:14.562Z,1023.77
2016-04-20T15:26:14.549Z,1023.76
2016-04-20T15:27:14.535Z,1023.81
2016-04-20T15:28:14.524Z,1023.76
2016-04-20T15:29:14.510Z,1023.76
2016-04-20T15:30:14.544Z,1023.7
2016-04-20T15:31:14.484Z,1023.68
2016-04-20T15:32:14.471Z,1023.68
2016-04-20T15:33:14.459Z,1023.7
2016-04-20T15:34:14.445Z,1023.7
2016-04-20T15:35:14.448Z,1023.72
2016-04-20T15:36:14.408Z,1023.73
2016-04-20T15:37:14.395Z,1023.7
2016-04-20T15:38:14.586Z,1023.63
2016-04-20T15:39:14.369Z,1023.64
2016-04-20T15:40:14.358Z,1023.65
2016-04-20T15:41:14.344Z,1023.62
2016-04-20T15:42:14.331Z,1023.67
2016-04-20T15:43:14.319Z,1023.65
2016-04-20T15:44:14.306Z,1023.67
2016-04-20T15:45:14.292Z,1023.71
2016-04-20T15:46:14.577Z,1023.69
2016-04-20T15:47:14.267Z,1023.64
2016-04-20T15:48:14.255Z,1023.64
2016-04-20T15:49:14.241Z,1023.65
2016-04-20T15:50:14.213Z,1023.63
2016-04-20T15:51:14.199Z,1023.66
2016-04-20T15:52:14.186Z,1023.65
2016-04-20T15:53:14.174Z,1023.62
2016-04-20T15:54:14.566Z,1023.62
2016-04-20T15:55:14.148Z,1023.57
2016-04-20T15:56:14.134Z,1023.59
2016-04-20T15:57:14.137Z,1023.57
2016-04-20T15:58:14.146Z,1023.51
2016-04-20T15:59:14.174Z,1023.53
2016-04-20T16:00:14.203Z,1023.53
2016-04-20T16:01:14.232Z,1023.51
2016-04-20T16:02:14.807Z,1023.5
2016-04-20T16:03:14.270Z,1023.45
2016-04-20T16:04:14.258Z,1023.41
2016-04-20T16:06:54.848Z,1023.4
2016-04-20T16:07:54.847Z,1023.45
2016-04-20T16:08:54.839Z,1023.43
2016-04-20T16:09:54.833Z,1023.43
2016-04-20T16:10:54.824Z,1023.46
2016-04-20T16:11:54.818Z,1023.41
2016-04-20T16:12:54.902Z,1023.4
2016-04-20T16:13:54.797Z,1023.41
2016-04-20T16:14:54.787Z,1023.43
2016-04-20T16:15:54.760Z,1023.4
2016-04-20T16:16:54.748Z,1023.39
2016-04-20T16:17:54.737Z,1023.38
2016-04-20T16:18:54.726Z,1023.41
2016-04-20T16:19:54.713Z,1023.38
2016-04-20T16:20:54.951Z,1023.35
2016-04-20T16:21:54.689Z,1023.33
2016-04-20T16:22:54.677Z,1023.31
2016-04-20T16:23:54.663Z,1023.29
2016-04-20T16:24:54.651Z,1023.27
2016-04-20T16:25:54.638Z,1023.27
2016-04-20T16:26:54.626Z,1023.25
2016-04-20T16:27:54.613Z,1023.26
2016-04-20T16:28:54.944Z,1023.27
2016-04-20T16:29:54.588Z,1023.25
2016-04-20T16:30:54.559Z,1023.2
2016-04-20T16:31:54.546Z,1023.2
2016-04-20T16:32:54.533Z,1023.19
2016-04-20T16:33:54.520Z,1023.19
2016-04-20T16:34:54.507Z,1023.17
2016-04-20T16:35:54.494Z,1023.19
2016-04-20T16:36:54.918Z,1023.2
2016-04-20T16:37:54.468Z,1023.15
2016-04-20T16:38:54.455Z,1023.17
2016-04-20T16:39:54.443Z,1023.16
2016-04-20T16:40:54.414Z,1023.14
2016-04-20T16:41:54.401Z,1023.14
2016-04-20T16:42:54.388Z,1023.19
2016-04-20T16:43:54.375Z,1023.2
2016-04-20T16:44:54.956Z,1023.19
2016-04-20T16:45:54.349Z,1023.18
2016-04-20T16:46:54.336Z,1023.15
2016-04-20T16:47:54.323Z,1023.19
2016-04-20T16:48:54.311Z,1023.16
2016-04-20T16:49:54.282Z,1023.14
2016-04-20T16:50:54.270Z,1023.13
2016-04-20T16:51:54.256Z,1023.14
2016-04-20T16:52:54.947Z,1023.09
2016-04-20T16:53:54.230Z,1023.11
2016-04-20T16:54:54.217Z,1023.1
2016-04-20T16:55:54.205Z,1023.12
2016-04-20T16:56:54.191Z,1023.1
2016-04-20T16:57:54.178Z,1023.09
2016-04-20T16:58:54.166Z,1023.09
2016-04-20T16:59:54.137Z,1023.09
2016-04-20T17:00:54.983Z,1023.1
2016-04-20T17:01:54.111Z,1023.08
2016-04-20T17:02:54.098Z,1023.08
2016-04-20T17:03:54.085Z,1023.11
2016-04-20T17:04:54.072Z,1023.07
2016-04-20T17:05:54.060Z,1023.08
2016-04-20T17:06:54.046Z,1023.1
2016-04-20T17:07:54.033Z,1023.09
2016-04-20T17:08:55.115Z,1023.13
2016-04-20T17:09:53.992Z,1023.1
2016-04-20T17:10:53.979Z,1023.11
2016-04-20T17:11:53.966Z,1023.13
2016-04-20T17:12:53.954Z,1023.14
2016-04-20T17:13:53.940Z,1023.11
2016-04-20T17:14:53.927Z,1023.07
2016-04-20T17:15:53.899Z,1023.08
2016-04-20T17:16:54.293Z,1023.07
2016-04-20T17:17:53.873Z,1023.07
2016-04-20T17:18:53.859Z,1023.03
2016-04-20T17:19:53.847Z,1023.04
2016-04-20T17:20:53.834Z,1023.02
2016-04-20T17:21:53.821Z,1022.99
2016-04-20T17:22:53.793Z,1022.98
2016-04-20T17:23:53.780Z,1023
2016-04-20T17:24:53.767Z,1023.02
2016-04-20T17:25:53.754Z,1023.02
2016-04-20T17:26:53.741Z,1023
2016-04-20T17:27:53.727Z,1023.03
2016-04-20T17:28:53.714Z,1022.99
2016-04-20T17:29:53.687Z,1023.03
2016-04-20T17:30:53.674Z,1022.99
2016-04-20T17:31:53.660Z,1023
2016-04-20T17:32:53.648Z,1023.02
2016-04-20T17:33:53.635Z,1023.04
2016-04-20T17:34:53.606Z,1022.97
2016-04-20T17:35:53.594Z,1023.01
2016-04-20T17:36:53.580Z,1022.95
2016-04-20T17:37:53.568Z,1022.92
2016-04-20T17:38:53.554Z,1022.92
2016-04-20T17:39:53.526Z,1022.94
2016-04-20T17:40:53.529Z,1022.98
2016-04-20T17:41:53.500Z,1022.95
2016-04-20T17:42:53.488Z,1022.97
2016-04-20T17:43:53.474Z,1022.94
2016-04-20T17:44:53.446Z,1022.95
2016-04-20T17:45:53.433Z,1022.93
2016-04-20T17:46:53.420Z,1022.91
2016-04-20T17:47:53.407Z,1022.97
2016-04-20T17:48:53.393Z,1022.92
2016-04-20T17:49:53.366Z,1022.92
2016-04-20T17:50:53.353Z,1022.95
2016-04-20T17:51:53.340Z,1022.93
2016-04-20T17:52:53.326Z,1022.93
2016-04-20T17:53:53.304Z,1022.97
2016-04-20T17:54:53.291Z,1022.96
2016-04-20T17:55:53.278Z,1022.97
2016-04-20T17:56:53.265Z,1022.94
2016-04-20T17:57:53.237Z,1022.97
2016-04-20T17:58:53.223Z,1022.93
2016-04-20T17:59:53.211Z,1022.94
2016-04-20T18:00:53.197Z,1022.96
2016-04-20T18:01:53.169Z,1022.95
2016-04-20T18:02:53.156Z,1023.04
2016-04-20T18:03:53.142Z,1022.95
2016-04-20T18:04:53.131Z,1022.98
2016-04-20T18:05:53.117Z,1022.98
2016-04-20T18:06:53.087Z,1022.97
2016-04-20T18:07:53.073Z,1022.96
2016-04-20T18:08:53.062Z,1022.96
2016-04-20T18:09:53.048Z,1023.01
2016-04-20T18:10:53.035Z,1022.92
2016-04-20T18:11:53.023Z,1022.93
2016-04-20T18:12:52.994Z,1022.93
2016-04-20T18:13:52.980Z,1022.91
2016-04-20T18:14:52.967Z,1022.93
2016-04-20T18:15:52.955Z,1022.92
2016-04-20T18:16:52.942Z,1022.95
2016-04-20T18:17:52.918Z,1022.88
2016-04-20T18:18:52.889Z,1022.89
2016-04-20T18:19:52.875Z,1022.9
2016-04-20T18:20:52.863Z,1022.92
2016-04-20T18:21:52.855Z,1022.86
2016-04-20T18:22:52.842Z,1022.85
2016-04-20T18:23:52.814Z,1022.85
2016-04-20T18:24:52.800Z,1022.84
2016-04-20T18:25:52.786Z,1022.83
2016-04-20T18:26:52.759Z,1022.85
2016-04-20T18:27:52.746Z,1022.85
2016-04-20T18:28:52.733Z,1022.84
2016-04-20T18:29:52.720Z,1022.86
2016-04-20T18:30:52.707Z,1022.86
2016-04-20T18:31:52.678Z,1022.84
2016-04-20T18:32:52.666Z,1022.86
2016-04-20T18:33:52.652Z,1022.87
2016-04-20T18:34:52.640Z,1022.86
2016-04-20T18:35:52.611Z,1022.91
2016-04-20T18:36:52.630Z,1022.85
2016-04-20T18:37:52.585Z,1022.89
2016-04-20T18:38:52.572Z,1022.89
2016-04-20T18:39:52.544Z,1022.9
2016-04-20T18:40:52.547Z,1022.91
2016-04-20T18:41:52.518Z,1022.86
2016-04-20T18:42:52.505Z,1022.88
2016-04-20T18:43:52.492Z,1022.89
2016-04-20T18:44:52.463Z,1022.85
2016-04-20T18:45:52.450Z,1022.91
2016-04-20T18:46:52.438Z,1022.89
2016-04-20T18:47:52.425Z,1022.92
2016-04-20T18:48:52.412Z,1022.89
2016-04-20T18:49:52.383Z,1022.92
2016-04-20T18:50:52.370Z,1022.96
2016-04-20T18:51:52.356Z,1022.94
2016-04-20T18:52:52.329Z,1022.96
2016-04-20T18:53:52.316Z,1023.01
2016-04-20T18:54:52.303Z,1022.96
2016-04-20T18:55:52.275Z,1022.95
2016-04-20T18:56:52.261Z,1022.95
2016-04-20T18:57:52.248Z,1022.94
2016-04-20T18:58:52.236Z,1022.9
2016-04-20T18:59:52.222Z,1022.94
2016-04-20T19:00:52.195Z,1022.87
2016-04-20T19:01:52.181Z,1022.88
2016-04-20T19:02:52.168Z,1022.91
2016-04-20T19:03:52.139Z,1022.9
2016-04-20T19:04:52.127Z,1022.93
2016-04-20T19:05:52.114Z,1022.93
2016-04-20T19:06:52.102Z,1022.9
2016-04-20T19:07:52.071Z,1022.89
2016-04-20T19:08:52.059Z,1022.95
2016-04-20T19:09:52.046Z,1022.88
2016-04-20T19:10:52.033Z,1022.86
2016-04-20T19:11:52.004Z,1022.85
2016-04-20T19:12:51.993Z,1022.86
2016-04-20T19:13:51.979Z,1022.82
2016-04-20T19:14:51.966Z,1022.83
2016-04-20T19:15:51.938Z,1022.8
2016-04-20T19:16:51.924Z,1022.82
2016-04-20T19:17:51.911Z,1022.86
2016-04-20T19:18:51.898Z,1022.81
2016-04-20T19:19:51.870Z,1022.78
2016-04-20T19:20:51.857Z,1022.83
2016-04-20T19:21:51.845Z,1022.81
2016-04-20T19:22:51.831Z,1022.78
2016-04-20T19:23:51.803Z,1022.76
2016-04-20T19:24:51.789Z,1022.78
2016-04-20T19:25:51.777Z,1022.78
2016-04-20T19:26:51.748Z,1022.87
2016-04-20T19:27:51.736Z,1022.81
2016-04-20T19:28:51.722Z,1022.83
2016-04-20T19:29:51.709Z,1022.89
2016-04-20T19:30:51.681Z,1022.88
2016-04-20T19:31:51.683Z,1022.92
2016-04-20T19:32:51.656Z,1022.92
2016-04-20T19:33:51.642Z,1022.91
2016-04-20T19:34:51.613Z,1022.93
2016-04-20T19:35:51.600Z,1022.9
2016-04-20T19:36:51.588Z,1022.88
2016-04-20T19:37:51.574Z,1022.9
2016-04-20T19:38:51.547Z,1022.87
2016-04-20T19:39:51.533Z,1022.88
2016-04-20T19:40:51.505Z,1022.85
2016-04-20T19:41:51.492Z,1022.86
2016-04-20T19:42:51.479Z,1022.84
2016-04-20T19:43:51.451Z,1022.81
2016-04-20T19:44:51.437Z,1022.79
2016-04-20T19:45:51.424Z,1022.78
2016-04-20T19:46:51.412Z,1022.78
2016-04-20T19:47:51.399Z,1022.82
2016-04-20T19:48:51.370Z,1022.84
2016-04-20T19:49:51.357Z,1022.77
2016-04-20T19:50:51.345Z,1022.83
2016-04-20T19:51:51.315Z,1022.79
2016-04-20T19:52:51.303Z,1022.78
2016-04-20T19:53:51.289Z,1022.78
2016-04-20T19:54:51.276Z,1022.85
2016-04-20T19:55:51.248Z,1022.83
2016-04-20T19:56:51.236Z,1022.79
2016-04-20T19:57:51.222Z,1022.82
2016-04-20T19:58:51.209Z,1022.85
2016-04-20T19:59:51.181Z,1022.82
2016-04-20T20:00:51.168Z,1022.81
2016-04-20T20:01:51.139Z,1022.78
2016-04-20T20:02:51.127Z,1022.77
2016-04-20T20:03:51.457Z,1022.79
2016-04-20T20:04:51.101Z,1022.78
2016-04-20T20:05:51.072Z,1022.76
2016-04-20T20:06:51.059Z,1022.77
2016-04-20T20:07:51.046Z,1022.79
2016-04-20T20:08:51.018Z,1022.77
2016-04-20T20:09:51.004Z,1022.8
2016-04-20T20:10:50.991Z,1022.81
2016-04-20T20:11:51.433Z,1022.78
2016-04-20T20:12:50.949Z,1022.79
2016-04-20T20:13:50.937Z,1022.79
2016-04-20T20:14:50.924Z,1022.76
2016-04-20T20:15:50.896Z,1022.8
2016-04-20T20:16:50.883Z,1022.82
2016-04-20T20:17:50.870Z,1022.78
2016-04-20T20:18:50.841Z,1022.79
2016-04-20T20:19:50.829Z,1022.79
2016-04-20T20:20:50.815Z,1022.79
2016-04-20T20:21:50.797Z,1022.78
2016-04-20T20:22:50.776Z,1022.75
2016-04-20T20:23:50.764Z,1022.83
2016-04-20T20:24:50.750Z,1022.85
2016-04-20T20:25:50.722Z,1022.77
2016-04-20T20:26:50.708Z,1022.76
2016-04-20T20:27:50.697Z,1022.72
2016-04-20T20:28:50.667Z,1022.72
2016-04-20T20:29:50.654Z,1022.71
2016-04-20T20:30:50.642Z,1022.69
2016-04-20T20:31:50.613Z,1022.74
2016-04-20T20:32:50.600Z,1022.74
2016-04-20T20:33:50.587Z,1022.81
2016-04-20T20:34:50.558Z,1022.74
2016-04-20T20:35:50.546Z,1022.72
2016-04-20T20:36:50.532Z,1022.7
2016-04-20T20:37:50.505Z,1022.73
2016-04-20T20:38:50.491Z,1022.69
2016-04-20T20:39:50.493Z,1022.62
2016-04-20T20:40:50.449Z,1022.58
2016-04-20T20:41:50.437Z,1022.63
2016-04-20T20:42:50.423Z,1022.62
2016-04-20T20:43:50.410Z,1022.57
2016-04-20T20:44:50.382Z,1022.59
2016-04-20T20:45:50.369Z,1022.56
2016-04-20T20:46:50.357Z,1022.55